Time;durP1;ratioP1;P1;durP2;ratioP2;P2;SDS_P1;SDS_P2;PMS_P1;PMS_P2;Temp;Humidity;BMP_temperature;BMP_pressure;BME280_temperature;BME280_humidity;BME280_pressure;Samples;Min_cycle;Max_cycle;Signal;HPM_P1;HPM_P2
2023/04/30 00:01:41;;;;;;;4.90;2.60;;;13.60;98.00;;;;;;5071738;28;20457;-66
2023/04/30 00:04:09;;;;;;;3.80;2.50;;;13.60;98.00;;;;;;5071906;28;20945;-66
2023/04/30 00:06:36;;;;;;;4.90;2.60;;;13.40;98.00;;;;;;5038137;28;20972;-66
2023/04/30 00:09:03;;;;;;;8.53;4.27;;;13.50;98.00;;;;;;5072064;28;20508;-66
2023/04/30 00:11:32;;;;;;;5.20;3.13;;;13.40;98.00;;;;;;5072001;28;20802;-66
2023/04/30 00:13:59;;;;;;;9.17;3.37;;;13.20;98.00;;;;;;5054172;28;20699;-66
2023/04/30 00:16:26;;;;;;;5.87;3.07;;;13.20;98.00;;;;;;5071681;28;20451;-66
2023/04/30 00:18:53;;;;;;;4.40;2.60;;;13.20;98.00;;;;;;5071823;28;20684;-66
2023/04/30 00:21:20;;;;;;;5.67;3.40;;;13.30;98.00;;;;;;5053953;28;20493;-66
2023/04/30 00:23:48;;;;;;;4.57;2.80;;;13.30;98.00;;;;;;5054036;28;20459;-66
2023/04/30 00:26:15;;;;;;;6.20;3.20;;;13.40;98.00;;;;;;5071514;28;20458;-66
2023/04/30 00:28:44;;;;;;;5.87;3.07;;;13.40;98.00;;;;;;5071406;28;20972;-66
2023/04/30 00:31:11;;;;;;;4.43;2.70;;;13.30;98.00;;;;;;5071187;28;20488;-66
2023/04/30 00:33:38;;;;;;;5.00;2.93;;;13.40;98.00;;;;;;5071339;28;20468;-66
2023/04/30 00:36:06;;;;;;;4.50;2.60;;;13.30;98.00;;;;;;5070950;28;20987;-66
2023/04/30 00:38:33;;;;;;;5.00;2.87;;;13.30;98.00;;;;;;5053773;28;20454;-66
2023/04/30 00:41:00;;;;;;;5.40;2.83;;;13.30;98.00;;;;;;5071552;28;20821;-66
2023/04/30 00:43:27;;;;;;;4.90;3.00;;;13.10;98.00;;;;;;5071195;28;20482;-66
2023/04/30 00:45:57;;;;;;;5.77;3.00;;;13.00;98.00;;;;;;5053586;28;20470;-66
2023/04/30 00:48:25;;;;;;;3.80;2.50;;;13.00;98.00;;;;;;5071195;28;20449;-66
2023/04/30 00:50:52;;;;;;;4.17;2.87;;;12.90;98.00;;;;;;5071267;28;20484;-66
2023/04/30 00:53:20;;;;;;;7.03;2.87;;;12.90;98.00;;;;;;5071165;28;20502;-66
2023/04/30 00:55:49;;;;;;;6.90;3.07;;;12.90;98.00;;;;;;5071663;28;20465;-66
2023/04/30 00:58:16;;;;;;;6.43;2.80;;;12.90;98.00;;;;;;5071149;28;20511;-66
2023/04/30 01:00:45;;;;;;;5.90;2.90;;;13.00;98.00;;;;;;5071200;28;20469;-66
2023/04/30 01:03:14;;;;;;;6.53;3.37;;;13.00;98.00;;;;;;5070993;28;20449;-66
2023/04/30 01:05:42;;;;;;;6.90;3.10;;;13.00;98.00;;;;;;5071377;28;20942;-66
2023/04/30 01:08:10;;;;;;;6.10;3.47;;;13.00;98.00;;;;;;5071357;28;20481;-66
2023/04/30 01:10:44;;;;;;;5.33;2.80;;;13.00;98.00;;;;;;5071002;28;20901;-66
2023/04/30 01:13:21;;;;;;;9.73;3.20;;;13.00;98.00;;;;;;5071139;28;20457;-66
2023/04/30 01:15:55;;;;;;;5.27;2.80;;;12.80;98.00;;;;;;5037314;28;20571;-66
2023/04/30 01:18:28;;;;;;;6.90;3.10;;;12.80;98.00;;;;;;5053712;28;20452;-66
2023/04/30 01:21:02;;;;;;;4.77;2.90;;;12.70;98.00;;;;;;5070963;28;20875;-66
2023/04/30 01:24:02;;;;;;;11.20;2.83;;;12.60;98.00;;;;;;5070934;28;20453;-66
2023/04/30 01:26:45;;;;;;;7.70;3.13;;;12.60;98.00;;;;;;5070843;28;20478;-66
2023/04/30 01:29:16;;;;;;;4.47;2.70;;;12.50;98.00;;;;;;5070746;28;20452;-66
2023/04/30 01:31:44;;;;;;;6.17;3.20;;;12.50;98.00;;;;;;5053222;28;20489;-66
2023/04/30 01:34:11;;;;;;;5.93;3.03;;;12.60;98.00;;;;;;5070669;28;20992;-66
2023/04/30 01:36:53;;;;;;;6.20;2.83;;;12.50;98.00;;;;;;5070870;28;20836;-66
2023/04/30 01:39:39;;;;;;;7.10;3.30;;;12.50;98.00;;;;;;5070757;28;20457;-66
2023/04/30 01:42:14;;;;;;;6.57;3.00;;;12.50;98.00;;;;;;5070746;28;20453;-66
2023/04/30 01:47:41;;;;;;;4.07;2.70;;;12.40;98.00;;;;;;5071323;28;20454;-66
2023/04/30 01:50:20;;;;;;;6.63;3.13;;;12.40;98.00;;;;;;5074366;28;20484;-66
2023/04/30 01:52:51;;;;;;;10.87;3.40;;;12.40;98.00;;;;;;5074621;28;20925;-65
2023/04/30 01:55:24;;;;;;;6.10;3.17;;;12.30;98.00;;;;;;5074553;28;20468;-66
2023/04/30 01:57:57;;;;;;;4.53;2.70;;;12.30;98.00;;;;;;5074510;28;20468;-66
2023/04/30 02:00:26;;;;;;;5.13;3.10;;;12.50;98.00;;;;;;5074336;28;20486;-66
2023/04/30 02:02:54;;;;;;;6.00;3.17;;;12.60;98.00;;;;;;5074687;28;20984;-66
2023/04/30 02:05:21;;;;;;;6.53;3.60;;;12.60;98.00;;;;;;5056857;28;20960;-66
2023/04/30 02:07:50;;;;;;;7.20;3.90;;;12.50;98.00;;;;;;5056633;28;20467;-65
2023/04/30 02:10:18;;;;;;;6.43;3.33;;;12.50;98.00;;;;;;5056249;28;20479;-66
2023/04/30 02:12:45;;;;;;;6.17;3.53;;;12.50;98.00;;;;;;5074116;28;20462;-66
2023/04/30 02:15:12;;;;;;;5.37;2.60;;;12.40;98.00;;;;;;5074092;28;20453;-65
2023/04/30 02:17:41;;;;;;;7.67;3.50;;;12.30;98.00;;;;;;5074050;28;20462;-66
2023/04/30 02:20:10;;;;;;;6.70;3.10;;;12.30;98.00;;;;;;5074112;28;20460;-65
2023/04/30 02:22:37;;;;;;;5.97;3.10;;;12.20;98.00;;;;;;5073855;28;20466;-66
2023/04/30 02:25:05;;;;;;;6.07;3.43;;;12.20;98.00;;;;;;5073827;28;20443;-66
2023/04/30 02:27:33;;;;;;;7.70;3.37;;;12.20;98.00;;;;;;5073677;28;21054;-66
2023/04/30 02:30:02;;;;;;;6.93;3.60;;;12.40;98.00;;;;;;5073834;28;20456;-66
2023/04/30 02:32:29;;;;;;;6.83;3.60;;;12.50;98.00;;;;;;5073625;28;20454;-66
2023/04/30 02:34:57;;;;;;;8.60;3.70;;;12.50;98.00;;;;;;5073632;28;20559;-66
2023/04/30 02:37:26;;;;;;;9.80;4.00;;;12.40;98.00;;;;;;5073640;28;20856;-66
2023/04/30 02:39:53;;;;;;;7.23;3.67;;;12.30;98.00;;;;;;5073623;28;20468;-66
2023/04/30 02:42:21;;;;;;;5.47;2.90;;;12.30;98.00;;;;;;5073695;28;20474;-66
2023/04/30 02:44:48;;;;;;;6.97;3.03;;;12.30;98.00;;;;;;5055832;28;20546;-66
2023/04/30 02:47:15;;;;;;;10.40;3.83;;;12.40;98.00;;;;;;5073484;28;20485;-66
2023/04/30 02:49:42;;;;;;;10.07;3.67;;;12.30;98.00;;;;;;5073548;28;20541;-66
2023/04/30 02:52:11;;;;;;;7.90;3.60;;;12.30;98.00;;;;;;5073365;28;20478;-66
2023/04/30 02:54:38;;;;;;;4.60;3.10;;;12.20;98.00;;;;;;5073549;28;20453;-66
2023/04/30 02:57:06;;;;;;;5.77;3.30;;;12.20;98.00;;;;;;5039220;28;20997;-66
2023/04/30 02:59:33;;;;;;;8.00;3.50;;;12.30;98.00;;;;;;5073264;28;20456;-66
2023/04/30 03:02:00;;;;;;;6.97;3.27;;;12.40;98.00;;;;;;5073185;28;20455;-66
2023/04/30 03:04:27;;;;;;;9.93;3.77;;;12.40;98.00;;;;;;5073399;28;20826;-65
2023/04/30 03:06:54;;;;;;;6.40;3.30;;;12.30;98.00;;;;;;5073186;28;20536;-66
2023/04/30 03:09:23;;;;;;;6.60;3.40;;;12.30;98.00;;;;;;5072970;28;20450;-65
2023/04/30 03:11:50;;;;;;;10.40;4.30;;;12.30;98.00;;;;;;5072924;28;20483;-66
2023/04/30 03:14:17;;;;;;;7.20;3.70;;;12.30;98.00;;;;;;5073022;28;20543;-66
2023/04/30 03:16:44;;;;;;;8.00;3.90;;;12.30;98.00;;;;;;5072898;28;20461;-66
2023/04/30 03:19:11;;;;;;;8.40;3.83;;;12.30;98.00;;;;;;5055101;28;20456;-66
2023/04/30 03:21:38;;;;;;;7.83;3.50;;;12.40;98.00;;;;;;5072708;28;20988;-66
2023/04/30 03:24:05;;;;;;;8.00;3.70;;;12.40;98.00;;;;;;5072714;28;20477;-66
2023/04/30 03:26:36;;;;;;;7.27;3.40;;;12.50;98.00;;;;;;5072677;28;20466;-66
2023/04/30 03:29:03;;;;;;;8.97;3.90;;;12.40;98.00;;;;;;5072668;28;20454;-66
2023/04/30 03:31:30;;;;;;;8.37;3.87;;;12.50;98.00;;;;;;5072588;28;20486;-66
2023/04/30 03:33:57;;;;;;;8.67;3.70;;;12.40;98.00;;;;;;5072437;28;20887;-67
2023/04/30 03:36:24;;;;;;;8.50;3.83;;;12.40;98.00;;;;;;5072563;28;20460;-66
2023/04/30 03:38:51;;;;;;;7.20;3.70;;;12.30;98.00;;;;;;5072586;28;20573;-66
2023/04/30 03:41:18;;;;;;;5.23;3.50;;;12.40;98.00;;;;;;5072331;28;20465;-66
2023/04/30 03:43:49;;;;;;;8.70;3.93;;;12.30;98.00;;;;;;5072409;28;20459;-66
2023/04/30 03:46:16;;;;;;;7.70;3.87;;;12.20;98.00;;;;;;5054809;28;20465;-66
2023/04/30 03:48:43;;;;;;;10.57;4.20;;;12.20;98.00;;;;;;5072270;28;20448;-65
2023/04/30 03:51:11;;;;;;;9.10;4.00;;;12.20;98.00;;;;;;5072199;28;20574;-66
2023/04/30 03:53:38;;;;;;;9.77;4.17;;;12.20;98.00;;;;;;5072520;28;20512;-66
2023/04/30 03:56:06;;;;;;;7.77;3.70;;;12.10;98.00;;;;;;5072387;28;20985;-66
2023/04/30 03:58:33;;;;;;;9.87;3.97;;;12.10;98.00;;;;;;5072169;28;20493;-65
2023/04/30 04:01:01;;;;;;;7.90;3.70;;;12.10;98.00;;;;;;5072165;28;20860;-66
2023/04/30 04:03:29;;;;;;;8.60;3.90;;;12.00;98.00;;;;;;5071992;28;20458;-66
2023/04/30 04:05:56;;;;;;;7.50;3.53;;;12.00;98.00;;;;;;5071864;28;20453;-65
2023/04/30 04:08:23;;;;;;;9.10;4.00;;;11.90;98.00;;;;;;5071652;28;21004;-66
2023/04/30 04:10:50;;;;;;;8.37;4.07;;;12.00;98.00;;;;;;5071130;28;20844;-66
2023/04/30 04:13:17;;;;;;;6.77;3.37;;;12.00;98.00;;;;;;5071616;28;20475;-65
2023/04/30 04:15:44;;;;;;;7.07;3.50;;;11.90;98.00;;;;;;5054086;28;20468;-66
2023/04/30 04:18:13;;;;;;;10.23;3.77;;;12.00;98.00;;;;;;5071578;28;20452;-66
2023/04/30 04:20:40;;;;;;;7.07;3.50;;;12.00;98.00;;;;;;5053869;28;20457;-65
2023/04/30 04:23:10;;;;;;;6.87;3.30;;;11.90;98.00;;;;;;5053908;28;20461;-66
2023/04/30 04:25:38;;;;;;;5.40;3.47;;;11.80;98.00;;;;;;5053745;28;20508;-66
2023/04/30 04:28:05;;;;;;;7.27;3.63;;;11.80;98.00;;;;;;5071601;28;20459;-66
2023/04/30 04:30:32;;;;;;;7.80;4.00;;;12.00;98.00;;;;;;5071480;28;20456;-66
2023/04/30 04:32:59;;;;;;;10.83;4.10;;;12.10;98.00;;;;;;5071523;28;20461;-66
2023/04/30 04:35:28;;;;;;;7.43;3.70;;;12.00;98.00;;;;;;5071267;28;20470;-65
2023/04/30 04:37:55;;;;;;;6.77;3.60;;;12.10;98.00;;;;;;5071332;28;20459;-65
2023/04/30 04:40:22;;;;;;;8.20;3.57;;;12.10;98.00;;;;;;5071337;28;20449;-65
2023/04/30 04:42:51;;;;;;;6.80;3.47;;;12.10;98.00;;;;;;5071344;28;20457;-66
2023/04/30 04:45:19;;;;;;;10.20;4.57;;;12.20;98.00;;;;;;5071304;28;20497;-66
2023/04/30 04:47:47;;;;;;;12.40;4.80;;;12.10;98.00;;;;;;5071383;28;20455;-65
2023/04/30 04:50:14;;;;;;;8.63;3.87;;;12.10;98.00;;;;;;5053828;28;20466;-66
2023/04/30 04:52:43;;;;;;;7.83;4.00;;;12.10;98.00;;;;;;5071396;28;20845;-66
2023/04/30 04:55:10;;;;;;;6.87;3.70;;;12.20;98.00;;;;;;5071340;28;20451;-65
2023/04/30 04:57:39;;;;;;;31.27;4.70;;;12.30;98.00;;;;;;5071236;28;20964;-66
2023/04/30 05:00:09;;;;;;;7.93;4.27;;;12.20;98.00;;;;;;5071256;28;20561;-66
2023/04/30 05:02:37;;;;;;;6.13;3.73;;;12.20;98.00;;;;;;5071198;28;20456;-66
2023/04/30 05:05:05;;;;;;;7.60;4.17;;;12.40;98.00;;;;;;5071215;28;20457;-66
2023/04/30 05:07:33;;;;;;;9.67;3.87;;;12.40;98.00;;;;;;5053402;28;20882;-66
2023/04/30 05:10:02;;;;;;;7.77;3.97;;;12.50;98.00;;;;;;5071088;28;20454;-66
2023/04/30 05:12:29;;;;;;;8.03;4.40;;;12.50;98.00;;;;;;5053054;28;21016;-66
2023/04/30 05:14:56;;;;;;;7.43;3.70;;;12.40;98.00;;;;;;5053372;28;20449;-66
2023/04/30 05:17:23;;;;;;;8.17;4.17;;;12.30;98.00;;;;;;5070917;28;20464;-65
2023/04/30 05:19:50;;;;;;;8.87;3.50;;;12.30;98.00;;;;;;5070743;28;20459;-66
2023/04/30 05:22:17;;;;;;;6.73;3.70;;;12.40;98.00;;;;;;5072807;28;20453;-65
2023/04/30 05:24:44;;;;;;;9.70;3.93;;;12.30;98.00;;;;;;5074954;28;20457;-66
2023/04/30 05:27:13;;;;;;;10.57;4.10;;;12.40;98.00;;;;;;5074969;28;20471;-65
2023/04/30 05:29:40;;;;;;;8.90;4.33;;;12.30;98.00;;;;;;5075269;28;20465;-66
2023/04/30 05:32:07;;;;;;;10.93;4.63;;;12.30;98.00;;;;;;5075114;28;20708;-65
2023/04/30 05:34:34;;;;;;;6.50;3.60;;;12.30;98.00;;;;;;5074872;28;20557;-66
2023/04/30 05:37:02;;;;;;;8.33;3.87;;;12.30;98.00;;;;;;5057110;28;20456;-65
2023/04/30 05:39:29;;;;;;;7.73;3.80;;;12.20;98.00;;;;;;5041128;28;20454;-66
2023/04/30 05:41:56;;;;;;;8.60;4.13;;;12.20;98.00;;;;;;5076055;28;20467;-66
2023/04/30 05:44:25;;;;;;;6.63;3.77;;;12.20;98.00;;;;;;5057403;28;20472;-66
2023/04/30 05:46:52;;;;;;;6.70;3.60;;;12.10;98.00;;;;;;5075702;28;20610;-66
2023/04/30 05:49:19;;;;;;;11.03;4.27;;;12.30;98.00;;;;;;5075712;28;20982;-65
2023/04/30 05:51:46;;;;;;;6.63;3.87;;;12.30;98.00;;;;;;5074560;28;20491;-66
2023/04/30 05:54:13;;;;;;;8.80;4.07;;;12.30;98.00;;;;;;5074408;28;20460;-65
2023/04/30 05:56:40;;;;;;;7.43;4.20;;;12.40;98.00;;;;;;5074617;28;20463;-66
2023/04/30 05:59:08;;;;;;;7.70;4.20;;;12.40;98.00;;;;;;5074345;28;20457;-66
2023/04/30 06:01:36;;;;;;;11.27;4.60;;;12.40;98.00;;;;;;5074435;28;20456;-62
2023/04/30 06:04:05;;;;;;;8.83;4.70;;;12.40;98.00;;;;;;5074351;28;20454;-62
2023/04/30 06:06:32;;;;;;;10.10;4.30;;;12.30;98.00;;;;;;5056730;28;20819;-61
2023/04/30 06:08:59;;;;;;;8.97;3.80;;;12.30;98.00;;;;;;5074096;28;20512;-61
2023/04/30 06:11:26;;;;;;;8.90;4.03;;;12.40;98.00;;;;;;5074095;28;20484;-62
2023/04/30 06:13:53;;;;;;;6.63;3.47;;;12.40;98.00;;;;;;5074028;28;20450;-62
2023/04/30 06:16:21;;;;;;;8.67;4.00;;;12.50;98.00;;;;;;5074111;28;20452;-62
2023/04/30 06:18:49;;;;;;;7.67;4.10;;;12.50;98.00;;;;;;5074048;28;20463;-62
2023/04/30 06:21:19;;;;;;;8.80;3.83;;;12.50;98.00;;;;;;5073989;28;20451;-62
2023/04/30 06:23:46;;;;;;;9.17;4.20;;;12.60;98.00;;;;;;5074075;28;20474;-62
2023/04/30 06:26:14;;;;;;;8.23;4.10;;;12.70;98.00;;;;;;5073858;28;20875;-62
2023/04/30 06:28:41;;;;;;;6.27;4.03;;;12.80;98.00;;;;;;5074017;28;20962;-61
2023/04/30 06:31:08;;;;;;;10.87;4.93;;;12.90;98.00;;;;;;5056093;28;20460;-62
2023/04/30 06:33:35;;;;;;;8.17;4.17;;;13.20;98.00;;;;;;5073027;28;20464;-62
2023/04/30 06:36:05;;;;;;;6.57;3.63;;;13.30;98.00;;;;;;5073617;28;20475;-62
2023/04/30 06:38:34;;;;;;;10.10;4.43;;;13.40;98.00;;;;;;5073739;28;20935;-62
2023/04/30 06:41:02;;;;;;;7.90;4.40;;;13.30;98.00;;;;;;5074039;28;20462;-62
2023/04/30 06:43:29;;;;;;;7.37;3.60;;;13.40;98.00;;;;;;5056047;28;20444;-62
2023/04/30 06:45:56;;;;;;;7.23;3.47;;;13.30;98.00;;;;;;5073422;28;20452;-62
2023/04/30 06:48:23;;;;;;;6.20;3.77;;;13.50;98.00;;;;;;5073485;28;20836;-62
2023/04/30 06:50:50;;;;;;;5.90;3.20;;;13.60;98.00;;;;;;5073540;28;20454;-62
2023/04/30 06:53:19;;;;;;;7.23;3.70;;;13.60;98.00;;;;;;5073236;28;20557;-62
2023/04/30 06:55:46;;;;;;;7.50;3.83;;;13.70;98.00;;;;;;5073407;28;20452;-62
2023/04/30 06:58:13;;;;;;;8.37;4.30;;;13.80;98.00;;;;;;5073355;28;20560;-62
2023/04/30 07:00:41;;;;;;;7.50;3.70;;;13.80;98.00;;;;;;5073265;28;20550;-62
2023/04/30 07:03:08;;;;;;;10.37;4.10;;;13.80;98.00;;;;;;5073429;28;20560;-62
2023/04/30 07:05:35;;;;;;;8.60;4.87;;;14.00;98.00;;;;;;5073259;28;20454;-62
2023/04/30 07:08:03;;;;;;;8.10;3.87;;;14.10;98.00;;;;;;5073092;28;20481;-62
2023/04/30 07:10:32;;;;;;;10.07;4.10;;;14.00;98.00;;;;;;5073082;28;20553;-62
2023/04/30 07:12:59;;;;;;;12.00;4.10;;;14.10;98.00;;;;;;5073080;28;20558;-62
2023/04/30 07:15:26;;;;;;;9.43;4.30;;;14.30;98.00;;;;;;5072896;28;20546;-62
2023/04/30 07:17:54;;;;;;;9.00;4.37;;;14.40;98.00;;;;;;5073018;28;20454;-62
2023/04/30 07:20:21;;;;;;;6.50;3.73;;;14.50;98.00;;;;;;5072877;28;20554;-62
2023/04/30 07:22:48;;;;;;;9.43;4.50;;;14.50;98.00;;;;;;5055169;28;20515;-62
2023/04/30 07:25:15;;;;;;;8.37;4.50;;;14.60;98.00;;;;;;5054998;28;20468;-62
2023/04/30 07:27:44;;;;;;;10.30;4.30;;;14.60;98.00;;;;;;5072709;28;20466;-62
2023/04/30 07:30:12;;;;;;;10.37;4.77;;;14.60;98.00;;;;;;5072794;28;20968;-62
2023/04/30 07:32:39;;;;;;;8.43;3.93;;;14.60;98.00;;;;;;5072846;28;20482;-62
2023/04/30 07:35:09;;;;;;;10.57;4.83;;;14.60;98.00;;;;;;5072802;28;20464;-62
2023/04/30 07:37:36;;;;;;;7.07;3.90;;;14.70;98.00;;;;;;5054974;28;20544;-62
2023/04/30 07:40:06;;;;;;;9.03;3.90;;;14.90;98.00;;;;;;5072633;28;20457;-62
2023/04/30 07:42:33;;;;;;;7.07;4.00;;;15.00;98.00;;;;;;5072438;28;20464;-62
2023/04/30 07:45:03;;;;;;;10.37;3.90;;;15.10;98.00;;;;;;5071504;28;20461;-62
2023/04/30 07:47:30;;;;;;;11.90;4.50;;;15.20;98.00;;;;;;5072208;28;20461;-62
2023/04/30 07:49:57;;;;;;;8.80;4.27;;;15.40;98.00;;;;;;5072239;28;20555;-62
2023/04/30 07:52:25;;;;;;;7.87;4.47;;;15.40;98.00;;;;;;5072250;28;20484;-62
2023/04/30 07:54:52;;;;;;;9.17;4.53;;;15.50;98.00;;;;;;5072123;28;20452;-62
2023/04/30 07:57:22;;;;;;;6.70;3.93;;;15.60;98.00;;;;;;5072070;28;20455;-62
2023/04/30 07:59:49;;;;;;;8.20;4.27;;;15.60;98.00;;;;;;5072184;28;20464;-62
2023/04/30 08:02:19;;;;;;;8.17;3.37;;;15.50;98.00;;;;;;5071780;28;20448;-62
2023/04/30 08:04:48;;;;;;;6.17;3.63;;;15.50;98.00;;;;;;5071179;28;21009;-62
2023/04/30 08:07:15;;;;;;;7.57;3.43;;;15.60;98.00;;;;;;5072656;28;20466;-62
2023/04/30 08:09:42;;;;;;;7.53;3.83;;;15.60;98.00;;;;;;5054786;28;20457;-62
2023/04/30 08:12:10;;;;;;;7.30;3.93;;;15.60;98.00;;;;;;5072352;28;20557;-62
2023/04/30 08:14:38;;;;;;;7.00;4.10;;;15.60;98.00;;;;;;5072318;28;20475;-62
2023/04/30 08:17:05;;;;;;;10.07;4.10;;;15.80;98.00;;;;;;5070476;28;20460;-63
2023/04/30 08:19:34;;;;;;;6.33;3.20;;;15.80;98.00;;;;;;5071932;28;20445;-62
2023/04/30 08:22:01;;;;;;;8.73;4.13;;;16.00;98.00;;;;;;5072442;28;20456;-62
2023/04/30 08:24:28;;;;;;;7.13;3.83;;;16.10;98.00;;;;;;5072503;28;20821;-62
2023/04/30 08:26:55;;;;;;;5.87;2.90;;;16.30;98.00;;;;;;5055352;28;20510;-62
2023/04/30 08:29:22;;;;;;;5.90;2.97;;;16.50;98.00;;;;;;5072660;28;20493;-62
2023/04/30 08:31:50;;;;;;;6.50;3.63;;;16.50;98.00;;;;;;5052381;28;20997;-62
2023/04/30 08:34:17;;;;;;;4.00;2.67;;;16.50;98.00;;;;;;5072003;28;20468;-63
2023/04/30 08:36:45;;;;;;;6.20;2.90;;;16.70;98.00;;;;;;5072059;28;20472;-62
2023/04/30 08:39:12;;;;;;;4.90;2.70;;;16.70;98.00;;;;;;5071795;28;20468;-62
2023/04/30 08:41:41;;;;;;;3.77;2.20;;;16.60;98.00;;;;;;5072145;28;20843;-62
2023/04/30 08:44:12;;;;;;;4.13;2.70;;;16.60;98.00;;;;;;5054151;28;20540;-62
2023/04/30 08:46:40;;;;;;;4.00;2.30;;;16.60;98.00;;;;;;5054364;28;20977;-63
2023/04/30 08:49:07;;;;;;;4.67;2.33;;;16.70;97.50;;;;;;5071641;28;20445;-62
2023/04/30 08:51:35;;;;;;;4.07;2.40;;;16.70;96.60;;;;;;5071776;28;20475;-62
2023/04/30 08:54:03;;;;;;;13.83;2.80;;;16.70;96.60;;;;;;5071709;28;20573;-63
2023/04/30 08:56:32;;;;;;;3.60;2.00;;;16.80;98.00;;;;;;5071319;28;20449;-63
2023/04/30 08:58:59;;;;;;;3.30;2.30;;;17.10;96.10;;;;;;5071786;28;20947;-63
2023/04/30 09:01:28;;;;;;;4.83;2.60;;;17.30;97.50;;;;;;5071449;28;20463;-62
2023/04/30 09:03:55;;;;;;;3.60;2.30;;;17.60;96.10;;;;;;5071656;28;21017;-62
2023/04/30 09:06:22;;;;;;;4.33;2.67;;;17.80;95.80;;;;;;5071674;28;20453;-62
2023/04/30 09:08:52;;;;;;;4.10;2.77;;;18.00;95.40;;;;;;5071654;28;20452;-62
2023/04/30 09:11:24;;;;;;;3.87;2.50;;;18.00;95.60;;;;;;5071773;28;20480;-62
2023/04/30 09:13:53;;;;;;;3.23;2.50;;;18.00;96.20;;;;;;5071524;28;21025;-62
2023/04/30 09:16:20;;;;;;;3.70;2.40;;;18.10;95.70;;;;;;5071769;28;20466;-62
2023/04/30 09:18:48;;;;;;;3.20;2.13;;;18.20;94.40;;;;;;5071616;28;20472;-62
2023/04/30 09:21:15;;;;;;;4.43;2.60;;;18.40;96.60;;;;;;5071896;28;20457;-62
2023/04/30 09:23:58;;;;;;;4.50;2.63;;;18.60;94.30;;;;;;5071848;28;20453;-62
2023/04/30 09:26:32;;;;;;;4.10;2.77;;;18.70;93.90;;;;;;5071805;28;20468;-63
2023/04/30 09:29:00;;;;;;;4.27;2.80;;;18.90;93.20;;;;;;5071724;28;20465;-63
2023/04/30 09:31:28;;;;;;;5.63;2.93;;;18.80;92.30;;;;;;5071637;28;20531;-63
2023/04/30 09:33:55;;;;;;;4.60;2.50;;;18.60;93.00;;;;;;5071177;28;21025;-63
2023/04/30 09:36:22;;;;;;;4.10;2.50;;;18.40;94.10;;;;;;5053286;28;20468;-63
2023/04/30 09:38:49;;;;;;;5.97;3.10;;;18.40;94.50;;;;;;5071135;28;20514;-63
2023/04/30 09:41:25;;;;;;;4.87;2.60;;;18.70;94.40;;;;;;5071619;28;20510;-62
2023/04/30 09:43:54;;;;;;;4.27;3.10;;;18.70;94.90;;;;;;5071388;28;20962;-63
2023/04/30 09:46:22;;;;;;;4.93;2.97;;;18.60;93.20;;;;;;5071377;28;20812;-62
2023/04/30 09:48:57;;;;;;;5.80;3.10;;;18.20;94.30;;;;;;5071461;28;20498;-63
2023/04/30 09:51:25;;;;;;;5.20;3.37;;;18.00;95.00;;;;;;5071344;28;20491;-62
2023/04/30 09:53:53;;;;;;;5.30;3.13;;;18.00;95.00;;;;;;5070317;28;21008;-62
2023/04/30 09:56:22;;;;;;;7.60;3.17;;;18.00;95.80;;;;;;5071437;28;20777;-63
2023/04/30 09:58:51;;;;;;;4.33;2.70;;;17.90;96.60;;;;;;5071428;28;20472;-63
2023/04/30 10:01:20;;;;;;;5.53;3.17;;;17.80;97.50;;;;;;5071289;28;20540;-63
2023/04/30 10:03:49;;;;;;;6.07;3.33;;;17.70;97.60;;;;;;5071109;28;20519;-62
2023/04/30 10:06:18;;;;;;;5.67;3.17;;;17.70;96.10;;;;;;5071345;28;20808;-63
2023/04/30 10:08:47;;;;;;;4.63;3.07;;;17.50;96.50;;;;;;5072239;28;20463;-63
2023/04/30 10:11:20;;;;;;;4.37;3.07;;;17.50;96.40;;;;;;5074940;28;20559;-62
2023/04/30 10:13:52;;;;;;;7.37;3.60;;;17.40;97.60;;;;;;5074983;28;20870;-63
2023/04/30 10:16:29;;;;;;;4.83;2.90;;;17.40;97.40;;;;;;5074816;28;20543;-62
2023/04/30 10:19:03;;;;;;;4.90;2.97;;;17.40;97.20;;;;;;5075045;28;20456;-63
2023/04/30 10:21:32;;;;;;;5.20;3.10;;;17.40;97.20;;;;;;5074943;28;20492;-62
2023/04/30 10:24:00;;;;;;;5.10;2.93;;;17.40;96.70;;;;;;5075064;28;20479;-62
2023/04/30 10:26:30;;;;;;;5.60;2.90;;;17.50;96.40;;;;;;5074987;28;20518;-63
2023/04/30 10:28:59;;;;;;;5.77;3.07;;;17.50;96.30;;;;;;5074549;28;20465;-62
2023/04/30 10:31:29;;;;;;;4.20;2.73;;;17.70;96.10;;;;;;5074532;28;20825;-62
2023/04/30 10:34:06;;;;;;;6.00;2.90;;;17.70;94.00;;;;;;5074410;28;20859;-63
2023/04/30 10:36:40;;;;;;;3.47;2.50;;;17.80;95.70;;;;;;5074346;28;20537;-63
2023/04/30 10:39:08;;;;;;;4.43;2.47;;;17.80;94.50;;;;;;5074475;28;20548;-62
2023/04/30 10:41:35;;;;;;;4.07;2.43;;;17.70;93.80;;;;;;5074443;28;20902;-62
2023/04/30 10:44:04;;;;;;;4.97;2.87;;;17.80;94.60;;;;;;5074518;28;20464;-63
2023/04/30 10:46:35;;;;;;;4.90;2.70;;;17.80;94.80;;;;;;5074293;28;20549;-63
2023/04/30 10:49:02;;;;;;;5.07;2.97;;;17.90;94.80;;;;;;5074284;28;20489;-62
2023/04/30 10:51:46;;;;;;;5.13;3.10;;;17.90;94.50;;;;;;5074172;28;20509;-63
2023/04/30 10:54:17;;;;;;;3.80;2.60;;;17.80;95.10;;;;;;5073985;28;20487;-63
2023/04/30 10:56:46;;;;;;;5.33;2.77;;;17.80;94.80;;;;;;5074288;28;20506;-63
2023/04/30 10:59:14;;;;;;;5.73;3.27;;;17.80;94.10;;;;;;5074040;28;20997;-63
2023/04/30 11:02:00;;;;;;;10.87;2.87;;;17.90;94.20;;;;;;5074083;28;21130;-63
2023/04/30 11:04:27;;;;;;;8.27;3.03;;;17.80;92.50;;;;;;5073925;28;20457;-63
2023/04/30 11:07:03;;;;;;;3.93;2.70;;;17.70;92.80;;;;;;5074002;28;20460;-63
2023/04/30 11:09:40;;;;;;;4.07;2.73;;;17.70;92.90;;;;;;5073883;28;20488;-63
2023/04/30 11:12:12;;;;;;;4.57;2.70;;;17.80;96.20;;;;;;5074051;28;20509;-63
2023/04/30 11:14:44;;;;;;;4.20;2.60;;;17.90;93.90;;;;;;5073801;28;20508;-63
2023/04/30 11:17:21;;;;;;;5.30;2.83;;;18.00;96.00;;;;;;5073925;28;21138;-63
2023/04/30 11:19:50;;;;;;;5.60;2.43;;;18.00;93.40;;;;;;5073879;28;20598;-63
2023/04/30 11:22:23;;;;;;;5.20;3.00;;;18.00;92.90;;;;;;5073905;28;20480;-63
2023/04/30 11:24:55;;;;;;;4.80;3.00;;;18.00;92.50;;;;;;5073655;28;20461;-63
2023/04/30 11:27:23;;;;;;;4.90;3.20;;;18.00;93.10;;;;;;5073072;28;20813;-63
2023/04/30 11:29:51;;;;;;;5.00;3.03;;;18.10;93.10;;;;;;5073410;28;20506;-63
2023/04/30 11:32:21;;;;;;;5.00;2.97;;;18.10;94.90;;;;;;5073450;28;20460;-62
2023/04/30 11:34:48;;;;;;;7.20;3.70;;;18.10;95.40;;;;;;5073087;28;20488;-63
2023/04/30 11:37:20;;;;;;;4.50;2.70;;;18.20;95.20;;;;;;5073412;28;20953;-63
2023/04/30 11:39:47;;;;;;;7.20;3.00;;;18.20;96.70;;;;;;5073266;28;20970;-63
2023/04/30 11:42:17;;;;;;;5.20;2.90;;;18.30;94.30;;;;;;5073239;28;20939;-63
2023/04/30 11:44:45;;;;;;;5.10;3.23;;;18.30;94.20;;;;;;5073156;28;20491;-63
2023/04/30 11:47:14;;;;;;;5.20;2.90;;;18.30;94.40;;;;;;5073149;28;20460;-63
2023/04/30 11:49:43;;;;;;;5.40;3.20;;;18.30;94.30;;;;;;5073182;28;20489;-63
2023/04/30 11:52:12;;;;;;;5.20;3.03;;;18.30;95.70;;;;;;5073192;28;20867;-62
2023/04/30 11:54:39;;;;;;;4.23;2.80;;;18.30;94.90;;;;;;5073073;28;20484;-63
2023/04/30 11:57:06;;;;;;;4.53;2.80;;;18.20;95.40;;;;;;5073208;28;21049;-63
2023/04/30 11:59:41;;;;;;;6.53;3.17;;;18.30;96.70;;;;;;5072885;28;20530;-63
2023/04/30 12:02:08;;;;;;;7.73;3.20;;;18.20;93.80;;;;;;5072952;28;20558;-62
2023/04/30 12:04:36;;;;;;;4.40;2.70;;;18.20;93.90;;;;;;5072889;28;20533;-63
2023/04/30 12:07:08;;;;;;;5.50;2.90;;;18.30;94.60;;;;;;5072904;28;20485;-63
2023/04/30 12:09:53;;;;;;;4.27;3.10;;;18.40;95.20;;;;;;5072843;28;20536;-63
2023/04/30 12:12:27;;;;;;;5.03;3.07;;;18.70;96.40;;;;;;5072953;28;20992;-62
2023/04/30 12:14:54;;;;;;;6.13;2.73;;;18.70;94.60;;;;;;5072877;28;20488;-63
2023/04/30 12:17:32;;;;;;;7.03;3.00;;;18.70;93.20;;;;;;5072558;28;20531;-63
2023/04/30 12:19:59;;;;;;;4.87;2.70;;;18.90;95.40;;;;;;5072066;28;20539;-63
2023/04/30 12:22:28;;;;;;;3.63;2.77;;;18.90;92.90;;;;;;5071862;28;20468;-63
2023/04/30 12:24:56;;;;;;;5.30;2.97;;;18.90;92.00;;;;;;5071880;28;20532;-63
2023/04/30 12:27:23;;;;;;;5.30;3.20;;;19.00;93.40;;;;;;5071773;28;20464;-63
2023/04/30 12:29:53;;;;;;;5.03;3.23;;;18.90;93.50;;;;;;5072019;28;20486;-63
2023/04/30 12:32:22;;;;;;;5.40;3.40;;;18.80;93.20;;;;;;5071679;28;20957;-63
2023/04/30 12:34:49;;;;;;;4.07;2.70;;;18.90;94.40;;;;;;5053939;28;20492;-63
2023/04/30 12:37:17;;;;;;;5.57;3.03;;;18.90;92.90;;;;;;5072244;28;20867;-63
2023/04/30 12:39:47;;;;;;;4.07;2.70;;;18.90;93.30;;;;;;5072314;28;20472;-63
2023/04/30 12:42:19;;;;;;;4.33;2.83;;;18.80;93.90;;;;;;5072145;28;20544;-63
2023/04/30 12:44:46;;;;;;;6.33;2.70;;;18.90;94.40;;;;;;5072171;28;20481;-63
2023/04/30 12:47:15;;;;;;;4.23;2.77;;;18.90;92.60;;;;;;5072188;28;21089;-63
2023/04/30 12:49:44;;;;;;;4.37;2.90;;;18.80;92.70;;;;;;5072169;28;20459;-63
2023/04/30 12:52:14;;;;;;;5.50;3.00;;;18.80;93.00;;;;;;5072155;28;20943;-63
2023/04/30 12:54:41;;;;;;;6.33;3.30;;;18.70;93.60;;;;;;5072117;28;20492;-63
2023/04/30 12:57:11;;;;;;;4.60;3.00;;;18.60;92.20;;;;;;5054208;28;20549;-63